createdAt,value
2017-12-14T00:00:23.538Z,99622.80
2017-12-14T00:02:52.538Z,99633.87
2017-12-14T00:05:21.118Z,99632.59
2017-12-14T00:07:49.910Z,99618.63
2017-12-14T00:10:19.007Z,99626.17
2017-12-14T00:12:47.689Z,99623.91
2017-12-14T00:15:16.489Z,99628.25
2017-12-14T00:17:45.169Z,99629.45
2017-12-14T00:20:13.807Z,99624.33
2017-12-14T00:22:43.143Z,99618.31
2017-12-14T00:25:11.325Z,99613.77
2017-12-14T00:27:39.986Z,99613.64
2017-12-14T00:30:08.696Z,99601.24
2017-12-14T00:32:37.591Z,99601.66
2017-12-14T00:35:06.158Z,99601.38
2017-12-14T00:37:34.863Z,99603.14
2017-12-14T00:40:03.536Z,99606.27
2017-12-14T00:42:32.235Z,99602.13
2017-12-14T00:45:00.856Z,99603.12
2017-12-14T00:47:30.418Z,99594.29
2017-12-14T00:49:59.156Z,99587.64
2017-12-14T00:52:28.638Z,99583.58
2017-12-14T00:54:57.662Z,99579.59
2017-12-14T00:57:26.391Z,99589.28
2017-12-14T00:59:55.047Z,99578.89
2017-12-14T01:02:24.034Z,99570.23
2017-12-14T01:04:52.758Z,99571.44
2017-12-14T01:07:21.442Z,99567.84
2017-12-14T01:09:50.335Z,99573.44
2017-12-14T01:12:19.081Z,99579.29
2017-12-14T01:14:47.707Z,99584.91
2017-12-14T01:17:16.641Z,99594.98
2017-12-14T01:19:46.100Z,99603.73
2017-12-14T01:22:14.752Z,99601.27
2017-12-14T01:24:43.472Z,99603.55
2017-12-14T01:27:12.113Z,99579.59
2017-12-14T01:29:40.844Z,99564.33
2017-12-14T01:32:09.637Z,99559.27
2017-12-14T01:34:38.325Z,99568.31
2017-12-14T01:37:07.000Z,99568.31
2017-12-14T01:39:35.894Z,99570.70
2017-12-14T01:42:04.546Z,99567.25
2017-12-14T01:44:33.109Z,99576.30
2017-12-14T01:47:02.830Z,99576.30
2017-12-14T01:49:31.558Z,99574.59
2017-12-14T01:52:00.216Z,99561.14
2017-12-14T01:54:28.981Z,99574.71
2017-12-14T01:57:00.788Z,99581.92
2017-12-14T01:59:29.582Z,99580.55
2017-12-14T02:01:58.268Z,99587.70
2017-12-14T02:04:26.905Z,99594.44
2017-12-14T02:06:56.352Z,99581.02
2017-12-14T02:09:24.992Z,99567.35
2017-12-14T02:11:53.724Z,99558.58
2017-12-14T02:14:22.412Z,99574.19
2017-12-14T02:16:51.096Z,99583.77
2017-12-14T02:19:19.891Z,99581.23
2017-12-14T02:21:48.974Z,99578.04
2017-12-14T02:24:17.769Z,99579.59
2017-12-14T02:26:46.454Z,99572.94
2017-12-14T02:29:15.349Z,99568.41
2017-12-14T02:31:44.002Z,99570.84
2017-12-14T02:34:12.721Z,99565.09
2017-12-14T02:36:41.604Z,99562.73
2017-12-14T02:39:10.205Z,99570.09
2017-12-14T02:41:38.893Z,99565.89
2017-12-14T02:44:07.673Z,99563.70
2017-12-14T02:46:36.304Z,99564.19
2017-12-14T02:49:05.757Z,99567.14
2017-12-14T02:51:34.638Z,99566.27
2017-12-14T02:54:03.336Z,99566.30
2017-12-14T02:56:31.983Z,99567.89
2017-12-14T02:59:01.015Z,99565.94
2017-12-14T03:01:29.661Z,99571.80
2017-12-14T03:03:58.329Z,99570.73
2017-12-14T03:06:27.787Z,99574.94
2017-12-14T03:08:56.571Z,99581.55
2017-12-14T03:11:25.308Z,99594.83
2017-12-14T03:13:54.829Z,99586.41
2017-12-14T03:16:23.548Z,99583.73
2017-12-14T03:18:52.236Z,99584.81
2017-12-14T03:21:20.919Z,99576.27
2017-12-14T03:23:49.608Z,99584.13
2017-12-14T03:26:18.293Z,99576.69
2017-12-14T03:28:46.981Z,99571.27
2017-12-14T03:31:15.674Z,99576.09
2017-12-14T03:33:44.320Z,99575.60
2017-12-14T03:36:13.288Z,99572.34
2017-12-14T03:38:42.755Z,99574.24
2017-12-14T03:41:11.370Z,99581.64
2017-12-14T03:43:41.246Z,99579.43
2017-12-14T03:46:09.885Z,99584.37
2017-12-14T03:48:38.578Z,99572.66
2017-12-14T03:51:07.609Z,99571.55
2017-12-14T03:53:36.405Z,99583.11
2017-12-14T03:56:04.984Z,99579.81
2017-12-14T03:58:33.870Z,99583.45
2017-12-14T04:01:02.562Z,99578.25
2017-12-14T04:03:31.248Z,99591.48
2017-12-14T04:06:00.202Z,99583.52
2017-12-14T04:08:28.870Z,99585.17
2017-12-14T04:10:58.335Z,99594.66
2017-12-14T04:13:27.435Z,99589.16
2017-12-14T04:15:56.104Z,99599.63
2017-12-14T04:18:24.893Z,99604.17
2017-12-14T04:20:53.634Z,99606.06
2017-12-14T04:23:23.127Z,99608.30
2017-12-14T04:25:52.591Z,99632.05
2017-12-14T04:28:21.532Z,99626.45
2017-12-14T04:30:50.380Z,99620.91
2017-12-14T04:33:19.123Z,99615.86
2017-12-14T04:35:47.949Z,99600.77
2017-12-14T04:38:16.637Z,99598.61
2017-12-14T04:40:45.323Z,99606.50
2017-12-14T04:43:14.168Z,99609.33
2017-12-14T04:45:43.666Z,99608.60
2017-12-14T04:48:13.179Z,99617.17
2017-12-14T04:50:41.919Z,99615.82
2017-12-14T04:53:10.612Z,99622.07
2017-12-14T04:55:39.281Z,99623.20
2017-12-14T04:58:08.174Z,99628.48
2017-12-14T05:00:36.959Z,99633.88
2017-12-14T05:03:05.753Z,99637.41
2017-12-14T05:05:34.844Z,99644.16
2017-12-14T05:08:03.597Z,99641.03
2017-12-14T05:10:32.314Z,99640.27
2017-12-14T05:13:01.157Z,99648.09
2017-12-14T05:15:30.624Z,99646.80
2017-12-14T05:17:59.392Z,99646.48
2017-12-14T05:20:28.290Z,99652.45
2017-12-14T05:22:57.074Z,99649.13
2017-12-14T05:25:25.820Z,99649.89
2017-12-14T05:27:55.538Z,99649.19
2017-12-14T05:30:24.303Z,99651.30
2017-12-14T05:32:53.824Z,99655.94
2017-12-14T05:35:22.516Z,99659.23
2017-12-14T05:37:51.240Z,99653.53
2017-12-14T05:40:19.974Z,99657.91
2017-12-14T05:42:49.533Z,99661.19
2017-12-14T05:45:18.328Z,99661.38
2017-12-14T05:47:47.081Z,99660.44
2017-12-14T05:50:15.800Z,99667.33
2017-12-14T05:52:44.584Z,99661.77
2017-12-14T05:55:13.379Z,99653.25
2017-12-14T05:57:42.479Z,99649.54
2017-12-14T06:00:11.255Z,99644.44
2017-12-14T06:02:39.985Z,99646.36
2017-12-14T06:05:09.508Z,99641.39
2017-12-14T06:07:38.249Z,99646.77
2017-12-14T06:10:07.765Z,99643.20
2017-12-14T06:12:36.811Z,99645.42
2017-12-14T06:15:05.493Z,99644.16
2017-12-14T06:17:34.177Z,99636.84
2017-12-14T06:20:04.961Z,99644.84
2017-12-14T06:22:34.476Z,99639.55
2017-12-14T06:25:03.308Z,99646.63
2017-12-14T06:27:32.364Z,99651.68
2017-12-14T06:30:01.083Z,99653.09
2017-12-14T06:32:29.878Z,99653.06
2017-12-14T06:34:58.663Z,99662.06
2017-12-14T06:37:27.449Z,99653.66
2017-12-14T06:39:56.243Z,99649.39
2017-12-14T06:42:24.929Z,99651.47
2017-12-14T06:44:53.715Z,99648.95
2017-12-14T06:47:22.500Z,99648.52
2017-12-14T06:49:51.492Z,99656.11
2017-12-14T06:52:20.192Z,99664.52
2017-12-14T06:54:49.074Z,99667.27
2017-12-14T06:57:18.275Z,99653.03
2017-12-14T06:59:47.058Z,99644.22
2017-12-14T07:02:15.789Z,99640.39
2017-12-14T07:04:45.631Z,99643.77
2017-12-14T07:07:14.247Z,99644.23
2017-12-14T07:09:42.868Z,99651.61
2017-12-14T07:12:12.685Z,99641.13
2017-12-14T07:14:42.246Z,99637.80
2017-12-14T07:17:11.031Z,99639.09
2017-12-14T07:19:40.131Z,99641.96
2017-12-14T07:22:09.015Z,99643.83
2017-12-14T07:24:37.746Z,99647.28
2017-12-14T07:27:07.220Z,99651.28
2017-12-14T07:29:35.961Z,99660.70
2017-12-14T07:32:04.789Z,99656.95
2017-12-14T07:34:33.481Z,99653.71
2017-12-14T07:37:02.162Z,99657.87
2017-12-14T07:39:30.842Z,99663.63
2017-12-14T07:41:59.700Z,99654.55
2017-12-14T07:44:29.238Z,99650.16
2017-12-14T07:47:15.537Z,99652.44
2017-12-14T07:49:44.225Z,99651.38
2017-12-14T07:52:13.016Z,99647.75
2017-12-14T07:54:42.089Z,99645.23
2017-12-14T07:57:10.831Z,99656.39
2017-12-14T07:59:40.303Z,99654.09
2017-12-14T08:02:09.016Z,99655.75
2017-12-14T08:04:37.759Z,99665.17
2017-12-14T08:07:06.360Z,99659.42
2017-12-14T08:09:35.550Z,99670.72
2017-12-14T08:12:04.372Z,99673.95
2017-12-14T08:14:33.158Z,99665.50
2017-12-14T08:17:02.223Z,99663.56
2017-12-14T08:19:30.940Z,99657.53
2017-12-14T08:21:59.657Z,99653.13
2017-12-14T08:24:28.893Z,99654.57
2017-12-14T08:26:57.618Z,99651.84
2017-12-14T08:29:26.361Z,99656.52
2017-12-14T08:31:55.407Z,99659.28
2017-12-14T08:34:24.800Z,99653.42
2017-12-14T08:36:54.376Z,99645.95
2017-12-14T08:39:23.113Z,99637.46
2017-12-14T08:41:51.955Z,99647.41
2017-12-14T08:44:20.754Z,99644.28
2017-12-14T08:46:49.941Z,99647.31
2017-12-14T08:49:18.617Z,99648.58
2017-12-14T08:51:47.402Z,99653.59
2017-12-14T08:54:16.503Z,99645.85
2017-12-14T08:56:45.299Z,99643.28
2017-12-14T08:59:13.979Z,99649.89
2017-12-14T09:01:42.977Z,99636.27
2017-12-14T09:04:11.763Z,99629.12
2017-12-14T09:06:40.547Z,99618.09
2017-12-14T09:09:09.378Z,99616.11
2017-12-14T09:11:38.950Z,99609.41
2017-12-14T09:14:08.511Z,99616.70
2017-12-14T09:16:38.007Z,99610.89
2017-12-14T09:19:07.501Z,99605.20
2017-12-14T09:21:37.301Z,99598.23
2017-12-14T09:24:05.973Z,99588.52
2017-12-14T09:26:34.677Z,99579.61
2017-12-14T09:29:03.519Z,99577.73
2017-12-14T09:31:32.323Z,99571.09
2017-12-14T09:34:01.055Z,99568.61
2017-12-14T09:36:30.802Z,99567.63
2017-12-14T09:38:59.544Z,99570.45
2017-12-14T09:41:29.012Z,99560.63
2017-12-14T09:43:57.703Z,99553.86
2017-12-14T09:46:27.244Z,99550.35
2017-12-14T09:48:56.708Z,99539.70
2017-12-14T09:51:25.411Z,99535.41
2017-12-14T09:53:54.103Z,99537.77
2017-12-14T09:56:22.940Z,99535.45
2017-12-14T09:58:51.814Z,99530.68
2017-12-14T10:01:20.514Z,99530.16
2017-12-14T10:03:49.247Z,99528.19
2017-12-14T10:06:18.865Z,99529.08
2017-12-14T10:08:48.265Z,99518.82
2017-12-14T10:11:17.636Z,99510.47
2017-12-14T10:13:46.672Z,99495.28
2017-12-14T10:16:15.290Z,99496.81
2017-12-14T10:18:44.076Z,99486.33
2017-12-14T10:21:12.871Z,99484.67
2017-12-14T10:23:41.656Z,99484.98
2017-12-14T10:26:10.340Z,99480.98
2017-12-14T10:28:39.382Z,99475.15
2017-12-14T10:31:08.943Z,99472.60
2017-12-14T10:33:37.730Z,99479.81
2017-12-14T10:36:06.503Z,99478.41
2017-12-14T10:38:35.276Z,99474.91
2017-12-14T10:41:04.070Z,99471.40
2017-12-14T10:43:33.064Z,99480.19
2017-12-14T10:46:01.782Z,99477.62
2017-12-14T10:48:30.434Z,99478.41
2017-12-14T10:50:59.323Z,99468.06
2017-12-14T10:53:28.117Z,99465.42
2017-12-14T10:55:56.804Z,99469.81
2017-12-14T10:58:25.972Z,99465.52
2017-12-14T11:01:00.112Z,99458.20
2017-12-14T11:03:28.897Z,99455.89
2017-12-14T11:05:57.582Z,99432.62
2017-12-14T11:08:26.376Z,99413.70
2017-12-14T11:10:55.412Z,99392.30
2017-12-14T11:13:24.888Z,99390.22
2017-12-14T11:15:55.199Z,99384.70
2017-12-14T11:18:23.942Z,99365.94
2017-12-14T11:20:52.768Z,99357.58
2017-12-14T11:23:21.726Z,99349.86
2017-12-14T11:25:50.556Z,99353.89
2017-12-14T11:28:19.288Z,99356.95
2017-12-14T11:30:48.777Z,99354.78
2017-12-14T11:33:17.424Z,99362.19
2017-12-14T11:35:46.222Z,99362.15
2017-12-14T11:38:15.360Z,99367.75
2017-12-14T11:40:44.921Z,99374.67
2017-12-14T11:43:13.621Z,99391.02
2017-12-14T11:45:43.590Z,99397.86
2017-12-14T11:48:12.259Z,99402.94
2017-12-14T11:50:40.992Z,99406.45
2017-12-14T11:53:09.889Z,99415.71
2017-12-14T11:55:38.573Z,99428.64
2017-12-14T11:58:07.258Z,99427.41
2017-12-14T12:00:36.146Z,99428.70
2017-12-14T12:03:04.937Z,99423.42
2017-12-14T12:05:33.721Z,99415.73
2017-12-14T12:08:02.422Z,99408.72
2017-12-14T12:10:31.203Z,99401.34
2017-12-14T12:12:59.988Z,99389.46
2017-12-14T12:15:28.772Z,99387.82
2017-12-14T12:17:57.495Z,99384.61
2017-12-14T12:20:27.019Z,99393.27
2017-12-14T12:22:55.806Z,99393.48
2017-12-14T12:25:25.260Z,99387.73
2017-12-14T12:27:53.996Z,99383.17
2017-12-14T12:30:23.814Z,99378.17
2017-12-14T12:32:52.644Z,99375.69
2017-12-14T12:35:21.348Z,99375.87
2017-12-14T12:37:50.226Z,99380.34
2017-12-14T12:40:18.961Z,99382.65
2017-12-14T12:42:48.429Z,99376.83
2017-12-14T12:45:17.511Z,99373.78
2017-12-14T12:47:46.198Z,99381.25
2017-12-14T12:50:14.934Z,99386.89
2017-12-14T12:52:44.589Z,99381.95
2017-12-14T12:55:13.383Z,99391.02
2017-12-14T12:57:42.169Z,99393.42
2017-12-14T13:00:11.831Z,99389.20
2017-12-14T13:02:40.560Z,99384.65
2017-12-14T13:05:09.355Z,99388.17
2017-12-14T13:07:38.546Z,99391.66
2017-12-14T13:10:07.342Z,99388.89
2017-12-14T13:12:36.071Z,99396.38
2017-12-14T13:15:05.525Z,99394.59
2017-12-14T13:17:34.211Z,99390.31
2017-12-14T13:20:02.904Z,99391.97
2017-12-14T13:22:31.691Z,99392.88
2017-12-14T13:25:00.477Z,99386.13
2017-12-14T13:27:29.369Z,99379.30
2017-12-14T13:29:58.254Z,99386.97
2017-12-14T13:32:27.049Z,99388.54
2017-12-14T13:34:55.785Z,99390.66
2017-12-14T13:37:25.540Z,99384.31
2017-12-14T13:39:54.335Z,99381.20
2017-12-14T13:42:23.012Z,99376.64
2017-12-14T13:44:51.834Z,99379.92
2017-12-14T13:47:21.415Z,99383.63
2017-12-14T13:49:50.144Z,99387.34
2017-12-14T13:52:19.835Z,99389.88
2017-12-14T13:54:48.551Z,99392.92
2017-12-14T13:57:18.024Z,99396.59
2017-12-14T13:59:46.788Z,99399.06
2017-12-14T14:02:15.573Z,99405.36
2017-12-14T14:04:44.364Z,99395.38
2017-12-14T14:07:13.872Z,99397.72
2017-12-14T14:09:44.089Z,99398.13
2017-12-14T14:12:12.847Z,99400.09
2017-12-14T14:14:41.548Z,99416.59
2017-12-14T14:17:10.323Z,99425.71
2017-12-14T14:19:39.014Z,99418.20
2017-12-14T14:22:07.950Z,99424.16
2017-12-14T14:24:37.422Z,99430.04
2017-12-14T14:27:06.116Z,99432.88
2017-12-14T14:29:34.783Z,99439.30
2017-12-14T14:32:03.562Z,99434.86
2017-12-14T14:34:32.248Z,99437.23
2017-12-14T14:37:00.935Z,99434.73
2017-12-14T14:39:30.380Z,99424.50
2017-12-14T14:41:59.799Z,99409.08
2017-12-14T14:44:28.792Z,99404.39
2017-12-14T14:46:57.484Z,99414.03
2017-12-14T14:49:26.128Z,99407.19
2017-12-14T14:51:55.146Z,99407.81
2017-12-14T14:54:24.613Z,99416.72
2017-12-14T14:56:53.178Z,99423.48
2017-12-14T14:59:22.179Z,99434.98
2017-12-14T15:01:50.765Z,99441.22
2017-12-14T15:04:19.460Z,99434.87
2017-12-14T15:06:48.153Z,99437.44
2017-12-14T15:09:16.822Z,99447.00
2017-12-14T15:11:45.489Z,99455.84
2017-12-14T15:14:14.353Z,99456.52
2017-12-14T15:16:43.818Z,99454.21
2017-12-14T15:19:12.518Z,99454.93
2017-12-14T15:21:41.288Z,99458.86
2017-12-14T15:24:09.974Z,99468.08
2017-12-14T15:26:38.621Z,99471.92
2017-12-14T15:29:07.457Z,99464.40
2017-12-14T15:31:36.035Z,99455.11
2017-12-14T15:34:04.718Z,99451.70
2017-12-14T15:36:33.512Z,99450.58
2017-12-14T15:39:02.093Z,99459.30
2017-12-14T15:41:30.885Z,99462.92
2017-12-14T15:43:59.877Z,99461.83
2017-12-14T15:46:28.663Z,99465.58
2017-12-14T15:48:57.307Z,99472.33
2017-12-14T15:51:26.341Z,99476.70
2017-12-14T15:53:54.922Z,99479.81
2017-12-14T15:56:23.613Z,99479.99
2017-12-14T15:58:53.320Z,99479.03
2017-12-14T16:01:21.918Z,99482.04
2017-12-14T16:03:50.692Z,99470.08
2017-12-14T16:06:19.435Z,99472.95
2017-12-14T16:08:48.909Z,99485.19
2017-12-14T16:11:17.570Z,99498.37
2017-12-14T16:13:46.741Z,99495.23
2017-12-14T16:16:15.406Z,99500.05
2017-12-14T16:18:44.170Z,99493.72
2017-12-14T16:21:13.764Z,99500.32
2017-12-14T16:23:43.229Z,99507.38
2017-12-14T16:26:11.902Z,99510.98
2017-12-14T16:28:41.729Z,99505.56
2017-12-14T16:31:10.416Z,99502.59
2017-12-14T16:33:39.003Z,99517.72
2017-12-14T16:36:07.984Z,99518.48
2017-12-14T16:38:36.579Z,99517.89
2017-12-14T16:41:05.260Z,99507.63
2017-12-14T16:43:34.043Z,99516.84
2017-12-14T16:46:02.728Z,99513.91
2017-12-14T16:48:31.462Z,99517.52
2017-12-14T16:51:01.230Z,99515.44
2017-12-14T16:53:29.874Z,99507.95
2017-12-14T16:55:58.602Z,99505.31
2017-12-14T16:58:28.452Z,99518.03
2017-12-14T17:00:57.248Z,99518.76
2017-12-14T17:03:25.819Z,99519.53
2017-12-14T17:05:54.537Z,99521.61
2017-12-14T17:08:23.306Z,99521.47
2017-12-14T17:10:52.092Z,99518.19
2017-12-14T17:13:21.084Z,99512.94
2017-12-14T17:15:49.737Z,99507.72
2017-12-14T17:18:18.455Z,99513.95
2017-12-14T17:20:47.450Z,99525.92
2017-12-14T17:23:16.134Z,99517.16
2017-12-14T17:25:44.883Z,99513.26
2017-12-14T17:28:13.605Z,99518.48
2017-12-14T17:30:42.245Z,99526.41
2017-12-14T17:33:10.888Z,99532.40
2017-12-14T17:35:39.662Z,99529.67
2017-12-14T17:38:08.298Z,99530.45
2017-12-14T17:40:37.757Z,99532.16
2017-12-14T17:43:06.608Z,99526.80
2017-12-14T17:45:35.252Z,99526.91
2017-12-14T17:48:03.970Z,99532.70
2017-12-14T17:50:32.601Z,99539.50
2017-12-14T17:53:01.256Z,99524.65
2017-12-14T17:55:29.873Z,99529.00
2017-12-14T17:57:58.657Z,99532.18
2017-12-14T18:00:27.309Z,99520.32
2017-12-14T18:02:56.029Z,99518.06
2017-12-14T18:05:24.947Z,99518.55
2017-12-14T18:07:53.614Z,99513.74
2017-12-14T18:10:22.381Z,99511.59
2017-12-14T18:12:51.204Z,99510.27
2017-12-14T18:15:19.913Z,99503.92
2017-12-14T18:17:49.475Z,99499.92
2017-12-14T18:20:18.270Z,99507.53
2017-12-14T18:22:46.916Z,99513.95
2017-12-14T18:25:16.452Z,99515.05
2017-12-14T18:27:46.150Z,99522.56
2017-12-14T18:30:14.743Z,99512.70
2017-12-14T18:32:43.489Z,99511.42
2017-12-14T18:35:13.129Z,99515.54
2017-12-14T18:37:41.832Z,99526.96
2017-12-14T18:40:10.617Z,99541.66
2017-12-14T18:42:39.563Z,99549.80
2017-12-14T18:45:09.008Z,99549.74
2017-12-14T18:47:37.661Z,99542.47
2017-12-14T18:50:06.439Z,99548.87
2017-12-14T18:52:35.989Z,99554.30
2017-12-14T18:55:05.389Z,99548.81
2017-12-14T18:57:34.281Z,99552.64
2017-12-14T19:00:03.010Z,99549.69
2017-12-14T19:02:32.506Z,99560.41
2017-12-14T19:05:03.105Z,99557.59
2017-12-14T19:07:31.813Z,99557.25
2017-12-14T19:10:00.453Z,99548.47
2017-12-14T19:12:29.629Z,99544.29
2017-12-14T19:14:59.116Z,99543.03
2017-12-14T19:17:28.793Z,99547.57
2017-12-14T19:19:57.984Z,99538.20
2017-12-14T19:22:26.879Z,99550.00
2017-12-14T19:24:55.565Z,99545.89
2017-12-14T19:27:24.864Z,99549.14
2017-12-14T19:29:53.649Z,99552.83
2017-12-14T19:32:22.333Z,99559.06
2017-12-14T19:34:51.229Z,99560.29
2017-12-14T19:37:19.956Z,99562.59
2017-12-14T19:39:49.425Z,99558.13
2017-12-14T19:42:18.209Z,99560.32
2017-12-14T19:44:47.782Z,99558.58
2017-12-14T19:47:16.570Z,99564.70
2017-12-14T19:49:45.392Z,99558.41
2017-12-14T19:52:14.889Z,99562.08
2017-12-14T19:54:43.855Z,99566.98
2017-12-14T19:57:12.696Z,99576.85
2017-12-14T19:59:42.154Z,99586.85
2017-12-14T20:02:10.859Z,99588.23
2017-12-14T20:04:40.445Z,99578.38
2017-12-14T20:07:09.145Z,99572.25
2017-12-14T20:09:37.863Z,99568.27
2017-12-14T20:12:07.680Z,99576.59
2017-12-14T20:14:37.170Z,99594.80
2017-12-14T20:17:06.733Z,99590.14
2017-12-14T20:19:35.628Z,99591.30
2017-12-14T20:22:04.412Z,99591.96
2017-12-14T20:24:32.989Z,99588.71
2017-12-14T20:27:02.081Z,99585.83
2017-12-14T20:29:30.777Z,99581.42
2017-12-14T20:31:59.518Z,99578.90
2017-12-14T20:34:29.380Z,99579.24
2017-12-14T20:36:58.276Z,99582.89
2017-12-14T20:39:26.958Z,99589.83
2017-12-14T20:41:55.742Z,99592.36
2017-12-14T20:44:24.433Z,99593.77
2017-12-14T20:46:53.114Z,99593.28
2017-12-14T20:49:22.107Z,99588.36
2017-12-14T20:51:50.792Z,99600.83
2017-12-14T20:54:19.587Z,99607.00
2017-12-14T20:56:48.373Z,99609.60
2017-12-14T20:59:17.061Z,99604.55
2017-12-14T21:01:45.844Z,99593.31
2017-12-14T21:04:14.946Z,99595.48
2017-12-14T21:06:43.620Z,99595.52
2017-12-14T21:09:12.312Z,99605.52
2017-12-14T21:11:41.200Z,99599.30
2017-12-14T21:14:09.886Z,99592.22
2017-12-14T21:16:38.542Z,99594.50
2017-12-14T21:19:07.510Z,99599.89
2017-12-14T21:21:36.864Z,99598.66
2017-12-14T21:24:05.570Z,99599.39
2017-12-14T21:26:34.261Z,99605.11
2017-12-14T21:29:02.928Z,99626.33
2017-12-14T21:31:31.608Z,99628.41
2017-12-14T21:34:00.663Z,99641.50
2017-12-14T21:36:30.209Z,99647.55
2017-12-14T21:38:58.924Z,99639.65
2017-12-14T21:41:28.770Z,99639.10
2017-12-14T21:43:57.438Z,99636.72
2017-12-14T21:46:26.905Z,99624.36
2017-12-14T21:48:55.690Z,99628.48
2017-12-14T21:51:24.260Z,99617.77
2017-12-14T21:56:21.176Z,99619.75
2017-12-14T21:58:50.648Z,99620.02
2017-12-14T22:01:19.428Z,99622.09
2017-12-14T22:03:48.210Z,99614.70
2017-12-14T22:06:17.006Z,99617.11
2017-12-14T22:08:45.889Z,99619.48
2017-12-14T22:11:14.685Z,99608.22
2017-12-14T22:13:43.370Z,99611.23
2017-12-14T22:16:11.941Z,99609.18
2017-12-14T22:18:40.730Z,99616.22
2017-12-14T22:21:09.529Z,99620.55
2017-12-14T22:23:38.271Z,99622.91
2017-12-14T22:26:07.164Z,99618.96
2017-12-14T22:28:35.832Z,99612.77
2017-12-14T22:31:05.400Z,99617.20
2017-12-14T22:33:34.493Z,99610.88
2017-12-14T22:36:03.277Z,99616.27
2017-12-14T22:38:32.073Z,99611.95
2017-12-14T22:41:01.018Z,99611.20
2017-12-14T22:43:30.357Z,99601.28
2017-12-14T22:45:59.151Z,99602.53
2017-12-14T22:48:28.201Z,99607.10
2017-12-14T22:50:56.973Z,99602.72
2017-12-14T22:53:26.436Z,99596.47
2017-12-14T22:55:55.403Z,99599.55
2017-12-14T22:58:24.116Z,99600.91
2017-12-14T23:00:52.764Z,99595.80
2017-12-14T23:03:21.507Z,99592.50
2017-12-14T23:05:50.225Z,99593.81
2017-12-14T23:08:18.918Z,99601.97
2017-12-14T23:10:47.644Z,99593.02
2017-12-14T23:13:16.303Z,99587.52
2017-12-14T23:15:45.015Z,99580.09
2017-12-14T23:18:13.738Z,99578.71
2017-12-14T23:20:42.499Z,99577.88
2017-12-14T23:23:11.072Z,99577.66
2017-12-14T23:25:39.903Z,99577.26
2017-12-14T23:28:09.366Z,99573.95
2017-12-14T23:30:38.028Z,99567.23
2017-12-14T23:33:06.743Z,99559.09
2017-12-14T23:35:35.430Z,99543.51
2017-12-14T23:38:04.153Z,99540.88
2017-12-14T23:40:33.746Z,99557.28
2017-12-14T23:43:02.439Z,99568.20
2017-12-14T23:45:31.198Z,99585.62
2017-12-14T23:47:59.983Z,99578.42
2017-12-14T23:50:28.667Z,99579.16
2017-12-14T23:52:57.356Z,99579.81
2017-12-14T23:55:26.446Z,99589.47
2017-12-14T23:57:55.245Z,99592.03
